createdAt,value
2023-04-11T00:01:54.025Z,1.40
2023-04-11T00:04:21.320Z,1.60
2023-04-11T00:06:48.607Z,1.10
2023-04-11T00:09:17.123Z,1.23
2023-04-11T00:11:44.262Z,1.07
2023-04-11T00:14:12.483Z,1.33
2023-04-11T00:16:41.343Z,1.47
2023-04-11T00:19:09.390Z,1.00
2023-04-11T00:21:39.847Z,1.33
2023-04-11T00:24:10.222Z,3.93
2023-04-11T00:26:37.333Z,1.37
2023-04-11T00:29:04.378Z,1.23
2023-04-11T00:31:31.460Z,1.60
2023-04-11T00:33:58.494Z,1.10
2023-04-11T00:36:26.915Z,1.23
2023-04-11T00:38:55.124Z,1.40
2023-04-11T00:41:22.387Z,1.20
2023-04-11T00:43:49.775Z,0.90
2023-04-11T00:46:17.527Z,1.50
2023-04-11T00:48:45.376Z,1.30
2023-04-11T00:51:12.455Z,1.07
2023-04-11T00:53:39.521Z,1.10
2023-04-11T00:56:06.960Z,1.20
2023-04-11T00:58:34.483Z,1.53
2023-04-11T01:01:02.044Z,1.47
2023-04-11T01:03:30.099Z,1.00
2023-04-11T01:05:57.449Z,1.27
2023-04-11T01:08:25.199Z,1.07
2023-04-11T01:10:52.237Z,1.40
2023-04-11T01:13:19.360Z,1.53
2023-04-11T01:15:46.401Z,1.70
2023-04-11T01:18:13.605Z,1.50
2023-04-11T01:20:40.648Z,1.50
2023-04-11T01:23:09.536Z,1.50
2023-04-11T01:25:36.567Z,1.10
2023-04-11T01:28:03.585Z,1.47
2023-04-11T01:30:30.696Z,1.00
2023-04-11T01:32:58.169Z,1.47
2023-04-11T01:35:25.231Z,1.33
2023-04-11T01:37:52.427Z,1.00
2023-04-11T01:40:21.392Z,1.10
2023-04-11T01:42:48.827Z,1.30
2023-04-11T01:45:22.072Z,1.30
2023-04-11T01:47:51.943Z,1.23
2023-04-11T01:50:22.300Z,1.20
2023-04-11T01:52:49.799Z,1.43
2023-04-11T01:55:17.137Z,1.30
2023-04-11T01:57:44.247Z,1.27
2023-04-11T02:00:11.644Z,1.27
2023-04-11T02:02:39.326Z,1.67
2023-04-11T02:05:06.883Z,1.50
2023-04-11T02:07:33.898Z,1.30
2023-04-11T02:10:00.976Z,1.37
2023-04-11T02:12:28.060Z,1.43
2023-04-11T02:14:55.242Z,1.57
2023-04-11T02:17:30.976Z,1.53
2023-04-11T02:19:58.286Z,1.27
2023-04-11T02:22:25.336Z,1.60
2023-04-11T02:24:54.437Z,1.20
2023-04-11T02:27:21.507Z,1.33
2023-04-11T02:29:48.519Z,1.37
2023-04-11T02:32:15.703Z,1.60
2023-04-11T02:34:42.779Z,1.73
2023-04-11T02:37:10.104Z,1.20
2023-04-11T02:39:37.134Z,1.40
2023-04-11T02:42:04.286Z,1.17
2023-04-11T02:44:31.361Z,1.40
2023-04-11T02:47:01.749Z,1.33
2023-04-11T02:49:28.811Z,1.60
2023-04-11T02:51:55.864Z,1.57
2023-04-11T02:54:22.919Z,2.13
2023-04-11T02:56:49.935Z,1.50
2023-04-11T02:59:17.092Z,1.77
2023-04-11T03:01:45.370Z,1.53
2023-04-11T03:04:12.597Z,1.57
2023-04-11T03:06:40.013Z,1.50
2023-04-11T03:09:07.111Z,2.30
2023-04-11T03:11:34.175Z,1.80
2023-04-11T03:14:01.221Z,2.37
2023-04-11T03:16:28.330Z,2.23
2023-04-11T03:18:55.510Z,2.60
2023-04-11T03:21:22.753Z,2.13
2023-04-11T03:23:49.873Z,1.80
2023-04-11T03:26:18.878Z,2.60
2023-04-11T03:28:46.297Z,2.20
2023-04-11T03:31:13.694Z,2.47
2023-04-11T03:33:40.819Z,1.87
2023-04-11T03:36:08.166Z,2.00
2023-04-11T03:38:35.274Z,1.60
2023-04-11T03:41:02.320Z,2.63
2023-04-11T03:43:29.530Z,1.77
2023-04-11T03:45:56.581Z,1.83
2023-04-11T03:48:29.643Z,2.30
2023-04-11T03:50:57.726Z,1.57
2023-04-11T03:53:24.724Z,2.00
2023-04-11T03:55:53.621Z,2.50
2023-04-11T03:58:21.439Z,2.47
2023-04-11T04:00:48.609Z,2.37
2023-04-11T04:03:15.841Z,3.07
2023-04-11T04:05:43.079Z,2.20
2023-04-11T04:08:10.243Z,2.07
2023-04-11T04:10:37.254Z,1.80
2023-04-11T04:13:04.271Z,2.70
2023-04-11T04:15:31.343Z,2.33
2023-04-11T04:17:58.406Z,2.10
2023-04-11T04:20:25.613Z,1.93
2023-04-11T04:22:53.139Z,2.60
2023-04-11T04:25:20.426Z,2.10
2023-04-11T04:27:47.763Z,2.27
2023-04-11T04:30:16.101Z,2.43
2023-04-11T04:32:44.897Z,3.37
2023-04-11T04:35:14.072Z,2.43
2023-04-11T04:37:45.581Z,2.60
2023-04-11T04:40:14.029Z,1.80
2023-04-11T04:42:42.033Z,2.77
2023-04-11T04:45:10.320Z,2.70
2023-04-11T04:47:38.577Z,2.57
2023-04-11T04:50:06.052Z,2.83
2023-04-11T04:52:33.104Z,2.40
2023-04-11T04:55:01.018Z,25.37
2023-04-11T04:57:29.042Z,9.83
2023-04-11T04:59:56.869Z,5.63
2023-04-11T05:02:25.419Z,2.77
2023-04-11T05:04:54.048Z,5.87
2023-04-11T05:07:23.493Z,3.37
2023-04-11T05:09:50.669Z,2.57
2023-04-11T05:12:17.692Z,2.50
2023-04-11T05:14:44.762Z,5.00
2023-04-11T05:17:11.790Z,3.30
2023-04-11T05:19:38.823Z,6.13
2023-04-11T05:22:06.037Z,3.13
2023-04-11T05:24:33.075Z,2.10
2023-04-11T05:27:00.512Z,3.37
2023-04-11T05:29:27.622Z,2.70
2023-04-11T05:31:54.632Z,2.50
2023-04-11T05:34:21.659Z,2.53
2023-04-11T05:36:48.718Z,3.00
2023-04-11T05:39:15.743Z,2.30
2023-04-11T05:41:43.180Z,2.40
2023-04-11T05:44:10.209Z,2.60
2023-04-11T05:46:37.364Z,3.70
2023-04-11T05:49:04.469Z,1.80
2023-04-11T05:51:31.679Z,2.10
2023-04-11T05:53:58.875Z,2.27
2023-04-11T05:56:26.230Z,2.97
2023-04-11T05:58:53.531Z,2.30
2023-04-11T06:01:20.916Z,2.17
2023-04-11T06:03:48.598Z,2.43
2023-04-11T06:06:15.821Z,2.20
2023-04-11T06:08:42.918Z,2.27
2023-04-11T06:11:11.206Z,3.57
2023-04-11T06:13:38.301Z,2.93
2023-04-11T06:16:06.467Z,2.97
2023-04-11T06:18:33.534Z,3.20
2023-04-11T06:21:00.572Z,2.80
2023-04-11T06:23:27.592Z,2.37
2023-04-11T06:25:54.670Z,3.37
2023-04-11T06:28:21.762Z,2.90
2023-04-11T06:30:48.797Z,4.87
2023-04-11T06:33:15.841Z,3.00
2023-04-11T06:35:42.934Z,2.60
2023-04-11T06:38:09.987Z,3.03
2023-04-11T06:40:38.160Z,2.40
2023-04-11T06:43:05.237Z,2.80
2023-04-11T06:45:33.333Z,2.43
2023-04-11T06:48:00.417Z,2.10
2023-04-11T06:50:27.513Z,2.90
2023-04-11T06:52:54.539Z,2.23
2023-04-11T06:55:23.080Z,2.50
2023-04-11T06:57:50.210Z,3.20
2023-04-11T07:00:17.433Z,2.10
2023-04-11T07:02:44.912Z,2.90
2023-04-11T07:05:12.469Z,2.67
2023-04-11T07:07:39.711Z,4.80
2023-04-11T07:10:07.158Z,2.70
2023-04-11T07:12:34.194Z,2.97
2023-04-11T07:15:03.738Z,2.93
2023-04-11T07:17:31.515Z,2.60
2023-04-11T07:19:58.525Z,3.23
2023-04-11T07:22:25.655Z,2.17
2023-04-11T07:24:53.180Z,3.07
2023-04-11T07:27:21.689Z,2.70
2023-04-11T07:29:48.700Z,2.83
2023-04-11T07:32:15.786Z,2.57
2023-04-11T07:34:42.806Z,2.57
2023-04-11T07:37:09.901Z,2.70
2023-04-11T07:39:37.097Z,2.80
2023-04-11T07:42:04.406Z,3.07
2023-04-11T07:44:31.480Z,3.40
2023-04-11T07:46:59.113Z,3.10
2023-04-11T07:49:26.140Z,3.33
2023-04-11T07:51:53.189Z,2.73
2023-04-11T07:54:20.216Z,3.40
2023-04-11T07:56:47.266Z,4.00
2023-04-11T07:59:16.022Z,2.67
2023-04-11T08:01:43.195Z,3.23
2023-04-11T08:04:11.212Z,2.87
2023-04-11T08:06:38.562Z,2.30
2023-04-11T08:09:05.597Z,2.23
2023-04-11T08:11:32.798Z,2.70
2023-04-11T08:14:00.894Z,2.80
2023-04-11T08:16:27.982Z,3.23
2023-04-11T08:18:55.054Z,2.47
2023-04-11T08:21:23.613Z,3.83
2023-04-11T08:23:53.457Z,2.83
2023-04-11T08:26:21.157Z,2.40
2023-04-11T08:28:48.227Z,2.40
2023-04-11T08:31:15.506Z,5.20
2023-04-11T08:33:42.732Z,3.00
2023-04-11T08:36:10.677Z,3.70
2023-04-11T08:38:38.623Z,3.13
2023-04-11T08:41:06.349Z,2.70
2023-04-11T08:43:37.652Z,1.67
2023-04-11T08:46:04.891Z,1.90
2023-04-11T08:48:32.318Z,1.70
2023-04-11T08:50:59.403Z,2.10
2023-04-11T08:53:26.862Z,2.97
2023-04-11T08:55:53.884Z,1.97
2023-04-11T08:58:21.096Z,1.87
2023-04-11T09:00:48.107Z,2.60
2023-04-11T09:03:17.287Z,3.60
2023-04-11T09:05:46.477Z,2.33
2023-04-11T09:08:14.527Z,3.03
2023-04-11T09:10:45.222Z,2.70
2023-04-11T09:13:22.616Z,2.00
2023-04-11T09:15:59.007Z,2.30
2023-04-11T09:18:33.165Z,2.53
2023-04-11T09:21:01.209Z,2.40
2023-04-11T09:23:28.798Z,2.30
2023-04-11T09:25:55.952Z,2.43
2023-04-11T09:28:22.982Z,1.57
2023-04-11T09:30:54.107Z,1.60
2023-04-11T09:33:29.924Z,1.77
2023-04-11T09:35:57.292Z,2.07
2023-04-11T09:38:28.354Z,1.80
2023-04-11T09:40:56.597Z,1.30
2023-04-11T09:43:23.604Z,2.23
2023-04-11T09:46:07.895Z,1.67
2023-04-11T09:49:01.252Z,2.03
2023-04-11T09:51:35.798Z,1.77
2023-04-11T09:54:05.298Z,2.00
2023-04-11T09:56:34.287Z,2.07
2023-04-11T09:59:01.685Z,1.97
2023-04-11T10:01:28.811Z,1.60
2023-04-11T10:03:57.343Z,1.60
2023-04-11T10:06:33.741Z,1.67
2023-04-11T10:09:11.510Z,1.47
2023-04-11T10:11:41.241Z,2.30
2023-04-11T10:14:08.326Z,1.17
2023-04-11T10:16:35.499Z,1.37
2023-04-11T10:19:04.235Z,1.53
2023-04-11T10:21:32.597Z,1.90
2023-04-11T10:24:16.314Z,1.30
2023-04-11T10:26:51.749Z,1.90
2023-04-11T10:29:34.525Z,1.60
2023-04-11T10:32:11.769Z,1.50
2023-04-11T10:34:41.833Z,1.57
2023-04-11T10:37:09.904Z,2.13
2023-04-11T10:39:48.870Z,1.43
2023-04-11T10:42:32.450Z,1.60
2023-04-11T10:45:18.480Z,2.13
2023-04-11T10:47:57.786Z,1.70
2023-04-11T10:50:27.789Z,1.80
2023-04-11T10:52:55.119Z,1.70
2023-04-11T10:55:22.584Z,1.60
2023-04-11T10:58:08.468Z,2.23
2023-04-11T11:00:54.063Z,1.50
2023-04-11T11:03:26.556Z,1.70
2023-04-11T11:05:59.748Z,1.83
2023-04-11T11:08:41.777Z,1.70
2023-04-11T11:11:09.848Z,1.10
2023-04-11T11:13:44.303Z,1.40
2023-04-11T11:16:14.815Z,1.17
2023-04-11T11:18:44.939Z,1.53
2023-04-11T11:21:17.016Z,1.43
2023-04-11T11:23:54.837Z,1.70
2023-04-11T11:26:22.089Z,2.23
2023-04-11T11:28:49.526Z,1.73
2023-04-11T11:31:16.615Z,1.20
2023-04-11T11:33:43.662Z,1.70
2023-04-11T11:36:11.539Z,1.83
2023-04-11T11:38:38.633Z,2.07
2023-04-11T11:41:05.990Z,1.60
2023-04-11T11:43:36.668Z,1.40
2023-04-11T11:46:08.826Z,2.90
2023-04-11T11:48:36.713Z,1.70
2023-04-11T11:51:03.963Z,1.40
2023-04-11T11:53:31.148Z,1.50
2023-04-11T11:55:58.264Z,1.57
2023-04-11T11:58:25.440Z,1.80
2023-04-11T12:00:53.066Z,1.73
2023-04-11T12:03:24.908Z,1.67
2023-04-11T12:05:53.734Z,2.20
2023-04-11T12:08:24.257Z,1.83
2023-04-11T12:10:51.630Z,1.70
2023-04-11T12:13:20.495Z,1.63
2023-04-11T12:15:51.912Z,1.83
2023-04-11T12:18:22.461Z,1.60
2023-04-11T12:20:50.141Z,2.30
2023-04-11T12:23:17.488Z,2.37
2023-04-11T12:25:44.735Z,1.63
2023-04-11T12:28:12.148Z,2.10
2023-04-11T12:30:39.266Z,2.00
2023-04-11T12:33:06.613Z,1.40
2023-04-11T12:35:33.784Z,1.77
2023-04-11T12:38:01.203Z,1.70
2023-04-11T12:40:29.760Z,1.50
2023-04-11T12:42:57.670Z,1.47
2023-04-11T12:45:25.335Z,2.70
2023-04-11T12:47:52.526Z,1.47
2023-04-11T12:50:19.793Z,2.23
2023-04-11T12:52:48.592Z,1.67
2023-04-11T12:55:15.767Z,1.47
2023-04-11T12:57:43.712Z,2.20
2023-04-11T13:00:12.738Z,1.27
2023-04-11T13:02:43.905Z,1.97
2023-04-11T13:05:13.908Z,2.63
2023-04-11T13:07:41.410Z,1.90
2023-04-11T13:10:08.719Z,2.13
2023-04-11T13:12:41.083Z,2.10
2023-04-11T13:15:09.630Z,1.83
2023-04-11T13:17:36.704Z,1.70
2023-04-11T13:20:07.596Z,1.40
2023-04-11T13:22:34.671Z,1.50
2023-04-11T13:25:01.812Z,1.80
2023-04-11T13:27:28.824Z,1.40
2023-04-11T13:29:55.856Z,2.97
2023-04-11T13:32:22.869Z,1.40
2023-04-11T13:34:49.994Z,2.03
2023-04-11T13:37:17.055Z,1.90
2023-04-11T13:39:44.102Z,2.00
2023-04-11T13:42:12.584Z,1.97
2023-04-11T13:44:40.659Z,1.40
2023-04-11T13:47:07.656Z,1.73
2023-04-11T13:49:34.675Z,1.47
2023-04-11T13:52:01.688Z,1.60
2023-04-11T13:54:28.903Z,2.27
2023-04-11T13:56:56.643Z,1.57
2023-04-11T13:59:23.753Z,1.37
2023-04-11T14:01:50.919Z,1.30
2023-04-11T14:04:18.215Z,2.30
2023-04-11T14:06:45.683Z,1.57
2023-04-11T14:09:12.813Z,1.60
2023-04-11T14:11:39.814Z,1.40
2023-04-11T14:14:06.963Z,1.70
2023-04-11T14:16:34.046Z,1.80
2023-04-11T14:19:01.168Z,1.80
2023-04-11T14:21:28.805Z,1.77
2023-04-11T14:23:56.321Z,1.60
2023-04-11T14:26:23.782Z,1.70
2023-04-11T14:28:51.440Z,1.63
2023-04-11T14:31:18.636Z,1.60
2023-04-11T14:33:45.696Z,1.43
2023-04-11T14:36:12.760Z,1.40
2023-04-11T14:38:39.816Z,1.47
2023-04-11T14:41:07.068Z,1.80
2023-04-11T14:43:34.143Z,1.83
2023-04-11T14:46:01.233Z,1.40
2023-04-11T14:48:28.785Z,1.47
2023-04-11T14:50:55.873Z,3.73
2023-04-11T14:53:23.543Z,1.57
2023-04-11T14:55:50.602Z,1.40
2023-04-11T14:58:17.671Z,1.73
2023-04-11T15:00:45.506Z,1.33
2023-04-11T15:03:12.974Z,1.50
2023-04-11T15:05:40.253Z,1.50
2023-04-11T15:08:08.073Z,2.90
2023-04-11T15:10:35.400Z,1.50
2023-04-11T15:13:03.663Z,1.60
2023-04-11T15:15:30.838Z,1.43
2023-04-11T15:18:18.950Z,1.40
2023-04-11T15:20:46.114Z,1.40
2023-04-11T15:23:14.259Z,2.33
2023-04-11T15:25:41.333Z,1.50
2023-04-11T15:28:09.510Z,1.40
2023-04-11T15:30:43.130Z,1.53
2023-04-11T15:33:10.203Z,1.57
2023-04-11T15:35:37.238Z,1.40
2023-04-11T15:38:04.337Z,1.67
2023-04-11T15:40:31.354Z,1.70
2023-04-11T15:42:58.356Z,1.80
2023-04-11T15:45:25.429Z,1.50
2023-04-11T15:47:52.592Z,1.87
2023-04-11T15:50:21.067Z,1.87
2023-04-11T15:52:48.278Z,1.20
2023-04-11T15:55:15.690Z,1.53
2023-04-11T15:57:42.787Z,2.23
2023-04-11T16:00:10.541Z,1.67
2023-04-11T16:02:38.178Z,1.47
2023-04-11T16:05:07.605Z,1.97
2023-04-11T16:07:35.266Z,1.80
2023-04-11T16:10:02.282Z,1.60
2023-04-11T16:12:29.376Z,1.60
2023-04-11T16:14:56.493Z,1.17
2023-04-11T16:17:23.575Z,1.37
2023-04-11T16:19:52.272Z,1.40
2023-04-11T16:22:19.376Z,1.70
2023-04-11T16:24:46.629Z,2.10
2023-04-11T16:27:13.698Z,1.63
2023-04-11T16:29:42.203Z,2.03
2023-04-11T16:32:09.348Z,1.30
2023-04-11T16:34:36.471Z,1.97
2023-04-11T16:37:03.525Z,1.40
2023-04-11T16:39:30.884Z,1.73
2023-04-11T16:41:57.906Z,1.60
2023-04-11T16:44:24.908Z,6.77
2023-04-11T16:46:51.939Z,1.50
2023-04-11T16:49:19.010Z,1.80
2023-04-11T16:51:46.376Z,1.40
2023-04-11T16:54:13.715Z,1.30
2023-04-11T16:56:40.772Z,1.30
2023-04-11T16:59:12.156Z,1.67
2023-04-11T17:01:40.749Z,2.30
2023-04-11T17:04:08.090Z,1.80
2023-04-11T17:06:35.501Z,2.10
2023-04-11T17:09:02.534Z,1.93
2023-04-11T17:11:29.853Z,1.47
2023-04-11T17:13:57.154Z,1.40
2023-04-11T17:16:24.421Z,1.70
2023-04-11T17:18:51.551Z,1.80
2023-04-11T17:21:18.877Z,1.70
2023-04-11T17:23:47.041Z,1.40
2023-04-11T17:26:14.638Z,1.30
2023-04-11T17:28:42.235Z,1.30
2023-04-11T17:31:13.055Z,1.07
2023-04-11T17:33:40.296Z,1.10
2023-04-11T17:36:07.622Z,1.13
2023-04-11T17:38:34.859Z,1.50
2023-04-11T17:41:13.570Z,1.30
2023-04-11T17:43:41.767Z,1.40
2023-04-11T17:46:09.016Z,1.63
2023-04-11T17:48:37.670Z,1.50
2023-04-11T17:51:05.571Z,1.70
2023-04-11T17:53:32.926Z,1.90
2023-04-11T17:56:04.171Z,4.60
2023-04-11T17:58:31.704Z,2.90
2023-04-11T18:00:58.778Z,2.13
2023-04-11T18:03:26.438Z,1.80
2023-04-11T18:05:54.546Z,2.30
2023-04-11T18:08:28.719Z,1.83
2023-04-11T18:11:04.205Z,2.93
2023-04-11T18:13:31.739Z,2.70
2023-04-11T18:15:58.905Z,2.07
2023-04-11T18:18:26.111Z,1.63
2023-04-11T18:20:53.337Z,2.80
2023-04-11T18:23:20.367Z,1.90
2023-04-11T18:25:47.997Z,1.60
2023-04-11T18:28:14.989Z,1.67
2023-04-11T18:30:42.015Z,1.53
2023-04-11T18:33:09.419Z,1.80
2023-04-11T18:35:36.706Z,2.03
2023-04-11T18:38:06.189Z,1.90
2023-04-11T18:40:33.815Z,2.53
2023-04-11T18:43:01.262Z,2.00
2023-04-11T18:45:28.355Z,2.07
2023-04-11T18:47:55.675Z,1.80
2023-04-11T18:50:22.930Z,4.13
2023-04-11T18:52:54.065Z,5.10
2023-04-11T18:55:23.945Z,10.40
2023-04-11T18:57:53.229Z,7.23
2023-04-11T19:00:21.255Z,27.87
2023-04-11T19:02:50.687Z,20.90
2023-04-11T19:05:19.214Z,8.23
2023-04-11T19:07:46.643Z,5.20
2023-04-11T19:10:14.226Z,5.33
2023-04-11T19:12:41.464Z,2.43
2023-04-11T19:15:09.447Z,8.60
2023-04-11T19:17:38.163Z,10.67
2023-04-11T19:20:07.008Z,14.13
2023-04-11T19:22:35.941Z,12.83
2023-04-11T19:25:03.151Z,15.70
2023-04-11T19:27:30.332Z,10.60
2023-04-11T19:29:57.458Z,9.97
2023-04-11T19:32:24.549Z,8.40
2023-04-11T19:34:52.065Z,6.03
2023-04-11T19:37:19.529Z,4.20
2023-04-11T19:39:46.622Z,3.90
2023-04-11T19:42:13.780Z,3.83
2023-04-11T19:44:40.950Z,5.20
2023-04-11T19:47:07.969Z,5.20
2023-04-11T19:49:35.001Z,2.53
2023-04-11T19:52:03.306Z,2.20
2023-04-11T19:54:32.871Z,2.60
2023-04-11T19:57:00.967Z,2.30
2023-04-11T19:59:28.070Z,2.70
2023-04-11T20:01:55.285Z,3.50
2023-04-11T20:04:22.432Z,2.20
2023-04-11T20:06:50.832Z,2.00
2023-04-11T20:09:18.005Z,2.10
2023-04-11T20:11:47.678Z,2.70
2023-04-11T20:14:14.696Z,2.33
2023-04-11T20:16:41.842Z,2.13
2023-04-11T20:19:08.898Z,2.97
2023-04-11T20:21:36.275Z,2.20
2023-04-11T20:24:03.650Z,2.50
2023-04-11T20:26:30.803Z,2.27
2023-04-11T20:29:00.583Z,2.47
2023-04-11T20:31:27.773Z,2.20
2023-04-11T20:33:55.018Z,2.50
2023-04-11T20:36:22.422Z,2.90
2023-04-11T20:38:49.464Z,3.80
2023-04-11T20:41:19.126Z,2.50
2023-04-11T20:43:46.209Z,3.40
2023-04-11T20:46:13.584Z,2.73
2023-04-11T20:48:41.632Z,2.40
2023-04-11T20:51:08.974Z,1.70
2023-04-11T20:53:36.412Z,2.00
2023-04-11T20:56:03.730Z,2.60
2023-04-11T20:58:30.790Z,1.77
2023-04-11T21:00:57.964Z,1.90
2023-04-11T21:03:25.063Z,2.27
2023-04-11T21:05:52.220Z,2.90
2023-04-11T21:08:19.401Z,2.63
2023-04-11T21:10:46.424Z,2.20
2023-04-11T21:13:13.461Z,2.10
2023-04-11T21:15:40.553Z,1.87
2023-04-11T21:18:07.743Z,1.83
2023-04-11T21:20:34.879Z,2.33
2023-04-11T21:23:02.754Z,2.27
2023-04-11T21:25:29.848Z,1.80
2023-04-11T21:27:56.973Z,2.10
2023-04-11T21:30:24.092Z,2.37
2023-04-11T21:32:51.935Z,2.20
2023-04-11T21:35:19.086Z,2.70
2023-04-11T21:37:47.835Z,2.30
2023-04-11T21:40:16.140Z,2.70
2023-04-11T21:42:43.213Z,2.10
2023-04-11T21:45:10.491Z,2.67
2023-04-11T21:47:37.812Z,2.40
2023-04-11T21:50:04.951Z,1.67
2023-04-11T21:52:32.159Z,2.30
2023-04-11T21:54:59.305Z,2.43
2023-04-11T21:57:27.033Z,2.23
2023-04-11T21:59:54.118Z,2.23
2023-04-11T22:02:21.481Z,2.00
2023-04-11T22:05:04.824Z,2.20
2023-04-11T22:07:48.614Z,2.50
2023-04-11T22:10:22.051Z,2.23
2023-04-11T22:12:49.222Z,2.47
2023-04-11T22:15:18.447Z,2.90
2023-04-11T22:17:50.292Z,2.50
2023-04-11T22:20:18.261Z,3.10
2023-04-11T22:22:45.483Z,2.37
2023-04-11T22:25:13.556Z,2.70
2023-04-11T22:27:40.568Z,2.33
2023-04-11T22:30:08.775Z,3.10
2023-04-11T22:32:37.021Z,2.67
2023-04-11T22:35:04.995Z,2.50
2023-04-11T22:37:32.036Z,2.40
2023-04-11T22:39:59.415Z,2.57
2023-04-11T22:42:27.475Z,3.43
2023-04-11T22:44:54.598Z,2.50
2023-04-11T22:47:22.944Z,2.80
2023-04-11T22:49:50.427Z,2.50
2023-04-11T22:52:24.065Z,2.93
2023-04-11T22:54:51.413Z,2.70
2023-04-11T22:57:18.598Z,2.87
2023-04-11T22:59:46.299Z,3.57
2023-04-11T23:02:13.358Z,3.33
2023-04-11T23:04:40.665Z,2.87
2023-04-11T23:07:08.566Z,2.50
2023-04-11T23:09:35.587Z,3.13
2023-04-11T23:12:02.593Z,2.77
2023-04-11T23:14:31.920Z,2.80
2023-04-11T23:16:59.035Z,2.40
2023-04-11T23:19:27.257Z,2.70
2023-04-11T23:21:55.493Z,2.83
2023-04-11T23:24:22.566Z,2.83
2023-04-11T23:26:49.560Z,3.03
2023-04-11T23:29:16.652Z,2.60
2023-04-11T23:31:43.671Z,2.10
2023-04-11T23:34:10.681Z,2.00
2023-04-11T23:36:37.766Z,2.10
2023-04-11T23:39:05.279Z,1.73
2023-04-11T23:41:32.505Z,2.17
2023-04-11T23:43:59.792Z,1.90
2023-04-11T23:46:27.046Z,2.40
2023-04-11T23:48:54.247Z,2.17
2023-04-11T23:51:21.449Z,1.80
2023-04-11T23:53:48.488Z,1.50
2023-04-11T23:56:15.544Z,1.87
2023-04-11T23:58:42.571Z,1.50
